Time;durP1;ratioP1;P1;durP2;ratioP2;P2;SDS_P1;SDS_P2;PMS_P1;PMS_P2;Temp;Humidity;BMP_temperature;BMP_pressure;BME280_temperature;BME280_humidity;BME280_pressure;Samples;Min_cycle;Max_cycle;Signal;HPM_P1;HPM_P2
2023/05/12 00:00:50;;;;;;;9.87;7.80;;;;;;;10.85;84.30;95147.44;5014504;28;20816;-81
2023/05/12 00:03:18;;;;;;;11.50;7.73;;;;;;;10.57;85.30;95143.56;5013909;28;20509;-82
2023/05/12 00:05:45;;;;;;;8.53;7.63;;;;;;;10.66;86.10;95148.06;4995879;28;20443;-80
2023/05/12 00:08:12;;;;;;;9.87;8.60;;;;;;;10.65;85.61;95149.03;4996363;28;20443;-81
2023/05/12 00:10:39;;;;;;;11.40;8.97;;;;;;;10.64;86.31;95150.00;5014835;28;20443;-81
2023/05/12 00:13:07;;;;;;;10.20;8.30;;;;;;;10.69;85.80;95149.63;5013986;28;20451;-82
2023/05/12 00:15:34;;;;;;;8.77;7.87;;;;;;;10.70;87.13;95146.06;5013630;28;20509;-82
2023/05/12 00:18:00;;;;;;;8.30;7.50;;;;;;;10.65;86.88;95150.81;4995877;28;20482;-82
2023/05/12 00:20:29;;;;;;;9.80;8.73;;;;;;;10.59;87.07;95146.91;5014016;28;20805;-82
2023/05/12 00:22:55;;;;;;;8.10;7.27;;;;;;;10.77;86.84;95150.69;5013663;28;20435;-82
2023/05/12 00:25:22;;;;;;;13.83;8.80;;;;;;;10.75;87.37;95141.28;5013703;28;20447;-81
2023/05/12 00:27:49;;;;;;;8.33;7.57;;;;;;;10.84;87.17;95148.38;5013938;28;20504;-81
2023/05/12 00:30:16;;;;;;;11.70;9.17;;;;;;;10.62;86.68;95141.41;4995710;28;20934;-81
2023/05/12 00:32:42;;;;;;;10.63;9.23;;;;;;;10.75;86.25;95141.28;5013727;28;20637;-82
2023/05/12 00:35:10;;;;;;;8.50;7.60;;;;;;;10.78;86.91;95141.00;5014077;28;20828;-82
2023/05/12 00:37:38;;;;;;;10.03;7.60;;;;;;;10.78;85.86;95141.00;5013923;28;20845;-82
2023/05/12 00:40:06;;;;;;;10.67;7.73;;;;;;;10.79;86.79;95148.75;5013698;28;20451;-82
2023/05/12 00:42:34;;;;;;;9.20;7.80;;;;;;;10.82;87.38;95152.94;5013737;28;20435;-82
2023/05/12 00:45:01;;;;;;;8.60;7.20;;;;;;;10.98;88.71;95149.88;5013201;28;20912;-82
2023/05/12 00:47:39;;;;;;;11.63;8.40;;;;;;;11.05;86.43;95149.25;5013711;28;20455;-82
2023/05/12 00:50:07;;;;;;;10.73;7.97;;;;;;;10.96;86.60;95150.00;5013865;28;20930;-81
2023/05/12 00:52:34;;;;;;;8.60;7.70;;;;;;;10.84;87.40;95151.84;5013585;28;20538;-82
2023/05/12 00:55:04;;;;;;;8.47;6.90;;;;;;;10.78;87.97;95154.97;4995311;28;20818;-82
2023/05/12 00:57:31;;;;;;;9.77;8.10;;;;;;;10.89;88.45;95154.09;5013475;28;20483;-82
2023/05/12 00:59:58;;;;;;;9.60;8.07;;;;;;;10.86;88.14;95151.72;5013309;28;20497;-81
2023/05/12 01:02:25;;;;;;;8.90;8.00;;;;;;;10.96;89.23;95159.66;5013531;28;20926;-82
2023/05/12 01:04:52;;;;;;;7.87;7.07;;;;;;;10.89;87.82;95163.75;5013714;28;20467;-82
2023/05/12 01:07:20;;;;;;;9.63;7.30;;;;;;;10.81;88.12;95162.59;5017050;28;20458;-82
2023/05/12 01:09:47;;;;;;;8.80;7.90;;;;;;;10.96;89.74;95163.13;5017065;28;20934;-82
2023/05/12 01:12:15;;;;;;;8.83;7.10;;;;;;;10.93;87.83;95166.00;4998685;28;20439;-81
2023/05/12 01:14:42;;;;;;;8.00;6.13;;;;;;;10.65;86.96;95156.91;5017454;28;20497;-81
2023/05/12 01:17:13;;;;;;;9.93;6.40;;;;;;;10.68;88.14;95164.53;5016637;28;21103;-82
2023/05/12 01:19:43;;;;;;;9.70;7.20;;;;;;;10.65;87.84;95154.28;5016800;28;20451;-81
2023/05/12 01:22:12;;;;;;;8.10;6.70;;;;;;;10.64;88.91;95159.66;4982387;28;20497;-81
2023/05/12 01:24:50;;;;;;;11.53;7.47;;;;;;;10.53;88.54;95168.41;5017148;28;20522;-82
2023/05/12 01:27:20;;;;;;;6.93;6.33;;;;;;;10.47;88.26;95158.41;5017188;28;20449;-82
2023/05/12 01:29:48;;;;;;;10.10;6.10;;;;;;;10.40;89.39;95155.41;4998792;28;20447;-82
2023/05/12 01:32:16;;;;;;;8.20;7.27;;;;;;;10.37;89.82;95163.53;5017315;28;20428;-82
2023/05/12 01:34:43;;;;;;;7.83;6.60;;;;;;;10.37;90.28;95163.53;5016931;28;20430;-82
2023/05/12 01:37:10;;;;;;;7.40;6.70;;;;;;;10.43;91.10;95162.22;5016423;28;20490;-81
2023/05/12 01:39:37;;;;;;;8.37;7.53;;;;;;;10.40;92.34;95157.19;5016354;28;20534;-82
2023/05/12 01:42:05;;;;;;;9.60;6.77;;;;;;;10.35;92.04;95160.19;5016163;28;20481;-82
2023/05/12 01:44:33;;;;;;;9.13;7.63;;;;;;;10.30;93.70;95156.28;5016464;28;20447;-82
2023/05/12 01:47:01;;;;;;;13.90;8.63;;;;;;;10.38;94.71;95157.31;5016081;28;20488;-83
2023/05/12 01:49:28;;;;;;;12.83;8.30;;;;;;;10.33;95.01;95156.88;5015772;28;20485;-81
2023/05/12 01:51:55;;;;;;;11.07;7.40;;;;;;;10.23;95.14;95158.56;5016447;28;20447;-81
2023/05/12 01:54:21;;;;;;;9.87;7.70;;;;;;;10.20;95.41;95157.03;5016669;28;20439;-81
2023/05/12 01:56:49;;;;;;;18.30;8.70;;;;;;;10.18;95.68;95160.69;5016669;28;20486;-81
2023/05/12 01:59:16;;;;;;;8.27;7.47;;;;;;;10.21;96.27;95153.44;4998018;28;20479;-81
2023/05/12 02:01:44;;;;;;;7.67;6.97;;;;;;;10.18;96.32;95153.66;5016143;28;20451;-81
2023/05/12 02:04:11;;;;;;;8.43;7.10;;;;;;;10.05;96.18;95150.31;5016583;28;20934;-81
2023/05/12 02:06:38;;;;;;;11.73;9.10;;;;;;;10.16;96.89;95154.72;5016555;28;20448;-81
2023/05/12 02:09:10;;;;;;;9.70;7.33;;;;;;;10.17;97.10;95153.78;5016013;28;20911;-80
2023/05/12 02:11:37;;;;;;;8.00;6.70;;;;;;;10.05;96.67;95157.34;5016059;28;20515;-81
2023/05/12 02:14:03;;;;;;;9.60;7.20;;;;;;;10.06;98.08;95153.75;5016428;28;20569;-81
2023/05/12 02:16:30;;;;;;;7.50;6.73;;;;;;;9.95;97.18;95149.38;5016269;28;20451;-80
2023/05/12 02:18:58;;;;;;;8.50;6.83;;;;;;;10.09;97.80;95151.72;5015495;28;20447;-81
2023/05/12 02:21:26;;;;;;;8.53;7.53;;;;;;;10.06;97.45;95145.91;5015981;28;20447;-80
2023/05/12 02:23:54;;;;;;;8.90;6.07;;;;;;;10.09;96.77;95148.28;5016425;28;20498;-80
2023/05/12 02:26:21;;;;;;;8.43;7.40;;;;;;;10.07;97.52;95147.56;5015617;28;20788;-80
2023/05/12 02:28:48;;;;;;;8.57;6.40;;;;;;;9.79;98.47;95157.59;5015733;28;21124;-81
2023/05/12 02:31:15;;;;;;;6.97;6.27;;;;;;;9.52;99.70;95151.84;5016109;28;20430;-80
2023/05/12 02:33:42;;;;;;;10.03;7.30;;;;;;;9.46;100.00;95149.69;5015705;28;20447;-81
2023/05/12 02:36:10;;;;;;;12.57;7.13;;;;;;;9.70;100.00;95145.19;5015987;28;20455;-82
2023/05/12 02:38:38;;;;;;;10.87;8.30;;;;;;;9.84;100.00;95147.59;5016015;28;20556;-81
2023/05/12 02:41:05;;;;;;;10.03;7.93;;;;;;;10.04;100.00;95150.44;4997275;28;20440;-81
2023/05/12 02:43:32;;;;;;;14.80;7.63;;;;;;;10.11;100.00;95146.38;5015686;28;20439;-81
2023/05/12 02:45:59;;;;;;;11.10;7.50;;;;;;;10.13;100.00;95150.56;5015632;28;20816;-81
2023/05/12 02:48:25;;;;;;;10.10;7.70;;;;;;;10.23;100.00;95145.44;5015621;28;20439;-80
2023/05/12 02:50:52;;;;;;;10.90;7.10;;;;;;;10.16;99.80;95152.09;5015430;28;20858;-81
2023/05/12 02:53:20;;;;;;;9.80;7.10;;;;;;;10.03;100.00;95151.38;5015277;28;20789;-81
2023/05/12 02:55:47;;;;;;;8.93;7.07;;;;;;;10.10;99.83;95142.91;5015556;28;20443;-81
2023/05/12 02:58:14;;;;;;;6.80;6.20;;;;;;;9.86;100.00;95153.56;5015319;28;20488;-81
2023/05/12 03:00:41;;;;;;;8.13;6.33;;;;;;;9.62;99.96;95151.03;4996707;28;20507;-81
2023/05/12 03:03:08;;;;;;;7.97;7.10;;;;;;;9.39;100.00;95138.84;5015468;28;20442;-81
2023/05/12 03:05:34;;;;;;;7.70;6.13;;;;;;;9.24;100.00;95145.25;5015353;28;20919;-81
2023/05/12 03:08:01;;;;;;;11.53;7.27;;;;;;;8.98;100.00;95149.84;4996967;28;20438;-81
2023/05/12 03:10:29;;;;;;;12.90;8.10;;;;;;;8.92;100.00;95150.28;5015046;28;20497;-81
2023/05/12 03:12:56;;;;;;;18.57;7.37;;;;;;;8.81;100.00;95152.84;5015017;28;20449;-82
2023/05/12 03:15:23;;;;;;;8.90;8.00;;;;;;;8.85;100.00;95149.06;5014691;28;20512;-82
2023/05/12 03:17:49;;;;;;;8.63;7.33;;;;;;;8.81;100.00;95153.69;5014683;28;20495;-81
2023/05/12 03:20:16;;;;;;;10.80;7.80;;;;;;;8.70;100.00;95153.66;5014848;28;20499;-82
2023/05/12 03:22:43;;;;;;;11.40;8.27;;;;;;;8.53;100.00;95148.81;5014786;28;20454;-82
2023/05/12 03:25:10;;;;;;;14.57;7.70;;;;;;;8.56;100.00;95151.19;5014883;28;20450;-83
2023/05/12 03:27:38;;;;;;;12.23;6.97;;;;;;;8.50;100.00;95156.88;5015026;28;20878;-83
2023/05/12 03:30:06;;;;;;;9.20;7.00;;;;;;;8.39;100.00;95165.50;5014707;28;20495;-82
2023/05/12 03:32:32;;;;;;;8.40;6.83;;;;;;;8.33;100.00;95158.91;5015171;28;20523;-82
2023/05/12 03:34:59;;;;;;;11.80;9.57;;;;;;;8.23;100.00;95159.66;5014445;28;20948;-82
2023/05/12 03:37:26;;;;;;;11.00;8.30;;;;;;;8.35;100.00;95174.50;5014827;28;20527;-81
2023/05/12 03:39:54;;;;;;;9.47;7.07;;;;;;;8.25;100.00;95171.69;5014588;28;20450;-85
2023/05/12 03:42:22;;;;;;;9.13;7.83;;;;;;;8.34;100.00;95173.66;5015042;28;20438;-85
2023/05/12 03:44:51;;;;;;;8.90;7.23;;;;;;;8.38;100.00;95174.25;5014749;28;20483;-85
2023/05/12 03:47:17;;;;;;;9.83;7.33;;;;;;;8.48;100.00;95172.69;5014489;28;20461;-85
2023/05/12 03:49:45;;;;;;;12.50;7.33;;;;;;;8.41;100.00;95175.84;5014583;28;20449;-85
2023/05/12 03:52:12;;;;;;;9.37;7.83;;;;;;;8.40;100.00;95171.56;5014655;28;20450;-85
2023/05/12 03:54:39;;;;;;;9.93;7.23;;;;;;;8.28;100.00;95171.44;5015135;28;20520;-86
2023/05/12 03:57:07;;;;;;;8.73;7.50;;;;;;;8.16;100.00;95169.72;5014435;28;20466;-85
2023/05/12 03:59:33;;;;;;;14.43;8.00;;;;;;;8.30;100.00;95179.19;5015164;28;20561;-82
2023/05/12 04:02:01;;;;;;;10.03;7.23;;;;;;;8.32;100.00;95178.13;5012534;28;20446;-81
2023/05/12 04:04:28;;;;;;;11.87;8.53;;;;;;;8.29;100.00;95182.75;5014460;28;20503;-82
2023/05/12 04:06:55;;;;;;;13.73;7.40;;;;;;;8.27;100.00;95180.25;5014310;28;20457;-82
2023/05/12 04:09:22;;;;;;;11.93;8.77;;;;;;;8.29;100.00;95180.97;5014031;28;20499;-81
2023/05/12 04:11:48;;;;;;;11.30;8.10;;;;;;;8.29;100.00;95196.66;5013823;28;20509;-82
2023/05/12 04:14:15;;;;;;;13.67;7.90;;;;;;;8.42;100.00;95191.44;5013960;28;20450;-81
2023/05/12 04:16:42;;;;;;;13.40;7.93;;;;;;;8.50;100.00;95194.31;5013874;28;20810;-84
2023/05/12 04:19:10;;;;;;;9.60;7.83;;;;;;;10.48;100.00;95189.75;5013949;28;20473;-85
2023/05/12 04:21:37;;;;;;;8.77;6.50;;;;;;;9.92;100.00;95200.25;5013654;28;20483;-81
2023/05/12 04:24:04;;;;;;;9.00;7.60;;;;;;;9.45;100.00;95189.94;5013655;28;20451;-81
2023/05/12 04:26:31;;;;;;;9.20;7.93;;;;;;;9.34;100.00;95195.16;5014127;28;20501;-81
2023/05/12 04:28:57;;;;;;;13.73;8.03;;;;;;;9.26;100.00;95198.38;5013600;28;20505;-82
2023/05/12 04:31:24;;;;;;;11.57;8.00;;;;;;;9.39;100.00;95190.41;4979218;28;20435;-80
2023/05/12 04:33:51;;;;;;;11.27;8.27;;;;;;;9.15;100.00;95191.28;5013808;28;20471;-80
2023/05/12 04:36:19;;;;;;;10.07;7.77;;;;;;;9.15;100.00;95198.31;5013286;28;20508;-81
2023/05/12 04:38:46;;;;;;;9.30;7.50;;;;;;;9.03;100.00;95196.59;5013230;28;21035;-80
2023/05/12 04:41:13;;;;;;;11.10;7.90;;;;;;;8.91;100.00;95195.72;5012529;28;20501;-81
2023/05/12 04:43:40;;;;;;;11.70;7.80;;;;;;;8.91;100.00;95190.47;5013942;28;20495;-81
2023/05/12 04:46:06;;;;;;;9.57;7.30;;;;;;;9.15;100.00;95183.44;5013631;28;20512;-81
2023/05/12 04:48:33;;;;;;;11.37;8.20;;;;;;;8.95;100.00;95181.44;5013384;28;20547;-81
2023/05/12 04:51:00;;;;;;;12.17;8.30;;;;;;;8.99;100.00;95182.91;5013633;28;20454;-81
2023/05/12 04:53:33;;;;;;;10.57;7.37;;;;;;;9.10;100.00;95196.03;5013693;28;20916;-81
2023/05/12 04:56:00;;;;;;;9.53;7.37;;;;;;;9.08;100.00;95199.72;5013581;28;20445;-81
2023/05/12 04:58:27;;;;;;;9.90;7.37;;;;;;;8.85;100.00;95193.56;5013820;28;20588;-82
2023/05/12 05:00:54;;;;;;;11.33;7.40;;;;;;;8.86;100.00;95187.38;5013578;28;20482;-82
2023/05/12 05:03:21;;;;;;;7.37;5.73;;;;;;;8.76;100.00;95192.44;5013209;28;20850;-82
2023/05/12 05:05:47;;;;;;;10.73;7.70;;;;;;;8.81;100.00;95198.19;5013539;28;20464;-81
2023/05/12 05:08:14;;;;;;;9.83;7.20;;;;;;;8.97;100.00;95190.06;5013214;28;20505;-82
2023/05/12 05:10:42;;;;;;;7.63;6.83;;;;;;;9.01;100.00;95196.72;5013438;28;20561;-80
2023/05/12 05:13:09;;;;;;;11.93;7.60;;;;;;;9.02;100.00;95198.41;4994704;28;20439;-82
2023/05/12 05:15:36;;;;;;;14.83;9.40;;;;;;;8.92;100.00;95189.53;5013207;28;20982;-82
2023/05/12 05:18:04;;;;;;;11.20;7.30;;;;;;;9.01;100.00;95196.72;5013173;28;20482;-81
2023/05/12 05:20:31;;;;;;;12.65;7.35;;;;;;;8.97;100.00;95190.06;4994946;28;20462;-84
2023/05/12 05:22:58;;;;;;;9.67;7.90;;;;;;;9.20;100.00;95198.78;5013586;28;20204;-84
2023/05/12 05:25:25;;;;;;;12.33;8.03;;;;;;;9.10;100.00;95201.28;4994876;28;20443;-82
2023/05/12 05:27:54;;;;;;;10.83;7.37;;;;;;;9.05;100.00;95203.41;5012869;28;20468;-81
2023/05/12 05:30:21;;;;;;;10.67;7.20;;;;;;;8.97;100.00;95196.13;5013327;28;20776;-81
2023/05/12 05:32:47;;;;;;;8.93;8.03;;;;;;;9.19;100.00;95210.22;5013279;28;20901;-81
2023/05/12 05:35:14;;;;;;;11.53;7.90;;;;;;;9.11;100.00;95208.19;5010173;28;20451;-81
2023/05/12 05:37:41;;;;;;;9.93;8.10;;;;;;;9.18;100.00;95214.63;4994251;28;20454;-80
2023/05/12 05:40:09;;;;;;;16.77;9.07;;;;;;;9.23;100.00;95206.41;5013110;28;20929;-81
2023/05/12 05:42:36;;;;;;;11.20;7.70;;;;;;;9.21;100.00;95214.38;5013121;28;20455;-81
2023/05/12 05:45:05;;;;;;;8.90;6.77;;;;;;;9.31;100.00;95215.41;5013440;28;20439;-82
2023/05/12 05:47:33;;;;;;;13.63;9.03;;;;;;;9.38;100.00;95210.53;5013331;28;20443;-81
2023/05/12 05:49:59;;;;;;;11.30;7.87;;;;;;;9.48;100.00;95214.13;5012342;28;20506;-81
2023/05/12 05:52:26;;;;;;;16.43;8.13;;;;;;;9.59;100.00;95211.53;5012643;28;20632;-81
2023/05/12 05:54:53;;;;;;;9.20;7.60;;;;;;;9.63;100.00;95214.75;5015569;28;20459;-82
2023/05/12 05:57:20;;;;;;;10.27;7.87;;;;;;;9.96;100.00;95218.38;5014746;28;20464;-82
2023/05/12 05:59:46;;;;;;;10.00;7.80;;;;;;;10.16;100.00;95207.19;5015657;28;20520;-81
2023/05/12 06:02:15;;;;;;;11.40;7.97;;;;;;;10.30;100.00;95212.19;5015909;28;20439;-82
2023/05/12 06:04:42;;;;;;;10.57;7.50;;;;;;;10.44;100.00;95217.19;5015466;28;20922;-82
2023/05/12 06:07:08;;;;;;;15.10;8.37;;;;;;;10.52;100.00;95208.72;5016154;28;20443;-83
2023/05/12 06:09:35;;;;;;;11.53;7.07;;;;;;;10.71;100.00;95215.97;5016478;28;20867;-82
2023/05/12 06:12:02;;;;;;;11.33;7.70;;;;;;;10.51;100.00;95218.38;5016150;28;20926;-82
2023/05/12 06:14:29;;;;;;;19.77;8.30;;;;;;;10.61;100.00;95218.47;5014912;28;20444;-82
2023/05/12 06:16:55;;;;;;;11.30;8.20;;;;;;;10.52;100.00;95214.78;5014066;28;20505;-82
2023/05/12 06:19:23;;;;;;;8.13;7.33;;;;;;;10.72;100.00;95218.47;5016268;28;20871;-82
2023/05/12 06:21:51;;;;;;;10.47;7.27;;;;;;;10.93;100.00;95222.94;5016224;28;20431;-82
2023/05/12 06:31:01;;;;;;;9.87;7.60;;;;;;;10.94;100.00;95229.84;5014727;28;20478;-82
2023/05/12 06:33:28;;;;;;;14.50;7.70;;;;;;;10.91;100.00;95236.19;5014455;28;20466;-83
2023/05/12 06:35:56;;;;;;;10.57;8.70;;;;;;;11.01;100.00;95236.28;5015972;28;20447;-82
2023/05/12 06:38:23;;;;;;;12.70;9.00;;;;;;;11.13;100.00;95233.50;5015237;28;20498;-82
2023/05/12 06:40:49;;;;;;;10.40;8.90;;;;;;;11.29;100.00;95237.50;4997296;28;20447;-82
2023/05/12 06:43:16;;;;;;;13.20;9.30;;;;;;;11.44;100.00;95239.69;5015899;28;20843;-83
2023/05/12 06:45:43;;;;;;;10.63;8.23;;;;;;;11.46;100.00;95236.94;5015390;28;20919;-82
2023/05/12 06:48:10;;;;;;;13.63;8.93;;;;;;;11.47;100.00;95239.44;5014335;28;20517;-82
2023/05/12 06:50:37;;;;;;;9.50;8.57;;;;;;;11.52;100.00;95244.31;4995472;28;20447;-82
2023/05/12 06:53:06;;;;;;;10.03;8.67;;;;;;;11.58;100.00;95246.44;5013605;28;20440;-83
2023/05/12 06:55:33;;;;;;;9.97;8.70;;;;;;;11.46;99.08;95244.81;5013911;28;20938;-83
2023/05/12 06:58:00;;;;;;;13.90;10.27;;;;;;;11.28;98.09;95249.81;5013748;28;20439;-82
2023/05/12 07:00:27;;;;;;;12.43;8.77;;;;;;;11.15;98.12;95244.69;5014165;28;20521;-82
2023/05/12 07:02:54;;;;;;;9.47;8.33;;;;;;;11.16;100.00;95235.88;5013712;28;20458;-82
2023/05/12 07:05:21;;;;;;;10.10;7.60;;;;;;;11.12;98.62;95236.25;5014115;28;20921;-83
2023/05/12 07:07:47;;;;;;;12.17;10.20;;;;;;;11.18;98.28;95233.94;5014524;28;20505;-82
2023/05/12 07:10:16;;;;;;;12.00;8.70;;;;;;;11.32;100.00;95245.13;5014586;28;20494;-83
2023/05/12 07:12:42;;;;;;;13.33;7.80;;;;;;;11.22;97.13;95247.66;4993615;28;20431;-82
2023/05/12 07:15:10;;;;;;;17.00;8.57;;;;;;;11.07;96.52;95247.13;5013795;28;20526;-82
2023/05/12 07:17:37;;;;;;;8.20;7.40;;;;;;;10.86;94.52;95246.22;5013947;28;20443;-82
2023/05/12 07:20:05;;;;;;;12.67;9.03;;;;;;;10.89;97.41;95245.13;5013678;28;20558;-82
2023/05/12 07:22:32;;;;;;;10.77;8.27;;;;;;;11.14;100.00;95242.19;4994602;28;20475;-82
2023/05/12 07:24:59;;;;;;;13.30;8.50;;;;;;;11.30;100.00;95245.25;5013562;28;20497;-82
2023/05/12 07:27:27;;;;;;;16.50;9.23;;;;;;;11.42;100.00;95248.66;5012759;28;20455;-82
2023/05/12 07:29:54;;;;;;;11.57;7.93;;;;;;;11.34;94.84;95251.94;5012753;28;20451;-82
2023/05/12 07:32:21;;;;;;;12.67;8.67;;;;;;;11.42;96.72;95256.53;5010691;28;20506;-82
2023/05/12 07:34:47;;;;;;;10.63;9.07;;;;;;;11.50;99.31;95248.84;5013341;28;21140;-82
2023/05/12 07:37:14;;;;;;;11.73;9.00;;;;;;;11.60;99.88;95249.78;5013141;28;20444;-83
2023/05/12 07:39:41;;;;;;;9.33;8.10;;;;;;;11.44;96.09;95244.09;5012933;28;20483;-82
2023/05/12 07:42:08;;;;;;;11.80;8.83;;;;;;;11.46;97.01;95248.28;5012995;28;20440;-82
2023/05/12 07:44:36;;;;;;;8.83;7.90;;;;;;;11.60;98.87;95252.41;5012824;28;20447;-82
2023/05/12 07:47:04;;;;;;;13.90;9.40;;;;;;;11.61;96.63;95246.19;5012762;28;20452;-83
2023/05/12 07:49:31;;;;;;;11.63;7.70;;;;;;;11.79;94.29;95251.72;5012753;28;20546;-82
2023/05/12 07:51:57;;;;;;;9.37;8.33;;;;;;;11.88;99.06;95253.59;5012478;28;20489;-82
2023/05/12 07:54:24;;;;;;;9.80;8.80;;;;;;;11.85;92.81;95260.88;5012295;28;20445;-82
2023/05/12 07:56:51;;;;;;;10.13;8.53;;;;;;;11.93;95.84;95261.09;5011930;28;20451;-83
2023/05/12 07:59:18;;;;;;;9.07;8.17;;;;;;;11.97;94.00;95257.25;5011665;28;20578;-82
2023/05/12 08:01:46;;;;;;;16.23;9.40;;;;;;;12.04;94.69;95263.63;5012400;28;20439;-81
2023/05/12 08:04:13;;;;;;;13.40;8.30;;;;;;;12.16;93.22;95249.47;5012709;28;20432;-83
2023/05/12 08:06:40;;;;;;;10.83;7.97;;;;;;;12.02;91.68;95255.88;5012350;28;20459;-82
2023/05/12 08:09:06;;;;;;;10.73;8.20;;;;;;;12.10;92.41;95256.06;5012773;28;20857;-83
2023/05/12 08:11:33;;;;;;;10.17;8.43;;;;;;;12.05;92.40;95255.63;5011929;28;20818;-83
2023/05/12 08:14:00;;;;;;;11.87;9.27;;;;;;;12.02;90.86;95249.78;5012211;28;20502;-83
2023/05/12 08:16:27;;;;;;;9.87;7.73;;;;;;;12.16;92.20;95253.91;5011832;28;20440;-82
2023/05/12 08:18:55;;;;;;;11.63;8.30;;;;;;;12.36;92.65;95253.00;5012481;28;20492;-82
2023/05/12 08:21:22;;;;;;;11.53;8.23;;;;;;;12.35;88.72;95261.84;5011829;28;20476;-82
2023/05/12 08:23:49;;;;;;;7.80;7.10;;;;;;;12.41;89.00;95254.25;5012416;28;20453;-82
2023/05/12 08:26:16;;;;;;;9.37;7.63;;;;;;;12.48;87.31;95251.13;5012028;28;20933;-82
2023/05/12 08:28:43;;;;;;;8.83;6.93;;;;;;;12.17;85.32;95264.28;5011980;28;20927;-82
2023/05/12 08:31:10;;;;;;;9.37;7.23;;;;;;;12.10;86.71;95263.94;5011893;28;20444;-83
2023/05/12 08:33:36;;;;;;;11.13;8.03;;;;;;;12.28;88.32;95261.56;5012429;28;20447;-83
2023/05/12 08:36:05;;;;;;;7.43;6.70;;;;;;;12.10;84.40;95258.69;5011734;28;20483;-82
2023/05/12 08:38:32;;;;;;;8.17;7.37;;;;;;;12.09;87.11;95264.06;5009769;28;20461;-82
2023/05/12 08:41:11;;;;;;;8.80;7.00;;;;;;;12.08;86.64;95270.31;5009199;28;20439;-82
2023/05/12 08:43:42;;;;;;;8.90;8.00;;;;;;;11.67;88.22;95260.59;5012416;28;20459;-82
2023/05/12 08:46:09;;;;;;;9.00;8.10;;;;;;;12.07;90.12;95256.31;5011844;28;20916;-83
2023/05/12 08:48:38;;;;;;;7.87;7.13;;;;;;;12.11;86.94;95259.53;5012231;28;20441;-83
2023/05/12 08:51:10;;;;;;;11.10;7.50;;;;;;;11.87;88.38;95254.56;5012290;28;20939;-84
2023/05/12 08:53:38;;;;;;;7.30;6.60;;;;;;;11.91;88.83;95245.44;5012554;28;20450;-83
2023/05/12 08:56:06;;;;;;;10.93;8.23;;;;;;;12.09;87.12;95250.94;5012272;28;20452;-86
2023/05/12 08:58:34;;;;;;;12.77;8.00;;;;;;;12.28;87.54;95253.66;5013050;28;20623;-82
2023/05/12 09:01:02;;;;;;;13.63;7.93;;;;;;;12.53;87.13;95246.28;5012344;28;20480;-82
2023/05/12 09:03:29;;;;;;;8.70;7.70;;;;;;;12.54;83.97;95258.47;5012102;28;20453;-81
2023/05/12 09:05:58;;;;;;;8.00;7.30;;;;;;;12.60;83.94;95250.88;5012359;28;20453;-82
2023/05/12 09:08:28;;;;;;;15.07;8.07;;;;;;;12.65;84.61;95243.41;5012325;28;20502;-82
2023/05/12 09:10:56;;;;;;;13.30;8.50;;;;;;;12.83;91.31;95235.72;5011969;28;20516;-81
2023/05/12 09:13:28;;;;;;;10.17;8.73;;;;;;;12.92;91.49;95234.88;5011557;28;20932;-82
2023/05/12 09:15:57;;;;;;;13.27;9.60;;;;;;;13.12;93.42;95230.50;5012156;28;20532;-82
2023/05/12 09:18:24;;;;;;;11.20;8.13;;;;;;;13.17;93.06;95227.44;5012176;28;20448;-83
2023/05/12 09:20:51;;;;;;;11.13;8.13;;;;;;;13.09;84.70;95230.78;5012095;28;20848;-82
2023/05/12 09:23:19;;;;;;;7.60;6.80;;;;;;;13.19;85.96;95231.63;5011725;28;20973;-82
2023/05/12 09:26:00;;;;;;;16.70;8.40;;;;;;;13.24;85.01;95233.84;5012057;28;20806;-82
2023/05/12 09:28:35;;;;;;;8.07;7.27;;;;;;;13.31;84.65;95238.44;5015078;28;20528;-82
2023/05/12 09:31:02;;;;;;;14.30;8.43;;;;;;;13.42;86.53;95231.38;5015579;28;20492;-82
2023/05/12 09:33:34;;;;;;;9.10;6.50;;;;;;;13.42;81.96;95228.72;5015942;28;20450;-82
2023/05/12 09:36:01;;;;;;;9.10;7.87;;;;;;;13.42;82.76;95232.19;5015399;28;20449;-81
2023/05/12 09:38:28;;;;;;;10.03;7.60;;;;;;;13.51;83.48;95230.53;5015993;28;20679;-83
2023/05/12 09:40:56;;;;;;;10.30;6.50;;;;;;;13.64;83.25;95226.66;5015312;28;20496;-82
2023/05/12 09:43:23;;;;;;;8.50;7.10;;;;;;;13.72;79.71;95228.56;5015450;28;20438;-82
2023/05/12 09:45:50;;;;;;;6.27;5.70;;;;;;;13.73;78.89;95234.69;5015230;28;20441;-82
2023/05/12 09:48:17;;;;;;;11.53;6.37;;;;;;;13.82;79.96;95224.09;5015321;28;20451;-82
2023/05/12 09:50:45;;;;;;;9.40;7.83;;;;;;;13.88;79.76;95228.00;5015482;28;20457;-82
2023/05/12 09:53:13;;;;;;;9.43;7.50;;;;;;;13.86;77.14;95237.84;5015404;28;20866;-82
2023/05/12 09:55:42;;;;;;;7.53;6.70;;;;;;;13.93;81.65;95231.03;5015399;28;20446;-82
2023/05/12 09:58:11;;;;;;;6.43;5.90;;;;;;;14.01;78.62;95238.25;5015234;28;20508;-82
2023/05/12 10:00:39;;;;;;;9.80;7.30;;;;;;;14.09;80.06;95228.63;5014857;28;20544;-82
2023/05/12 10:03:10;;;;;;;8.90;6.40;;;;;;;14.18;79.12;95230.44;5015093;28;20895;-82
2023/05/12 10:05:39;;;;;;;8.57;6.27;;;;;;;14.25;76.71;95231.50;5015102;28;20514;-82
2023/05/12 10:08:08;;;;;;;7.13;6.10;;;;;;;14.33;78.28;95220.22;5015016;28;20485;-83
2023/05/12 10:10:38;;;;;;;7.17;5.97;;;;;;;14.55;78.78;95219.88;5015209;28;20479;-83
2023/05/12 10:13:05;;;;;;;7.50;6.10;;;;;;;14.78;76.25;95217.69;5015001;28;20448;-82
2023/05/12 10:15:35;;;;;;;7.20;5.40;;;;;;;14.84;74.26;95210.97;5015363;28;20447;-82
2023/05/12 10:18:02;;;;;;;7.07;4.70;;;;;;;14.94;73.57;95219.66;5014927;28;20460;-83
2023/05/12 10:20:29;;;;;;;5.27;3.90;;;;;;;15.02;70.91;95214.47;5014666;28;20544;-83
2023/05/12 10:22:58;;;;;;;5.10;4.70;;;;;;;14.96;70.04;95220.34;5015335;28;20440;-83
2023/05/12 10:25:26;;;;;;;9.07;5.47;;;;;;;15.12;72.91;95207.31;4980171;28;20459;-82
2023/05/12 10:27:55;;;;;;;5.70;5.20;;;;;;;15.29;73.87;95204.81;5014769;28;20534;-82
2023/05/12 10:30:22;;;;;;;5.10;4.60;;;;;;;15.26;71.68;95211.25;5015269;28;20448;-82
2023/05/12 10:32:51;;;;;;;12.00;5.00;;;;;;;15.30;69.35;95211.75;5014909;28;20448;-83
2023/05/12 10:35:19;;;;;;;5.80;4.97;;;;;;;15.28;70.91;95214.56;5014447;28;20445;-82
2023/05/12 10:37:47;;;;;;;5.73;5.00;;;;;;;15.34;69.45;95206.06;5014397;28;20454;-82
2023/05/12 10:40:24;;;;;;;3.93;3.63;;;;;;;15.35;69.61;95207.72;5013968;28;20483;-83
2023/05/12 10:42:51;;;;;;;5.93;5.33;;;;;;;15.36;69.16;95206.72;5014650;28;20518;-82
2023/05/12 10:45:19;;;;;;;7.20;5.40;;;;;;;15.33;68.99;95208.84;5014385;28;20445;-83
2023/05/12 10:47:47;;;;;;;10.57;5.27;;;;;;;15.25;69.93;95204.28;5012133;28;20444;-82
2023/05/12 10:50:26;;;;;;;6.20;5.70;;;;;;;15.29;70.11;95203.00;5014356;28;20456;-82
2023/05/12 10:52:56;;;;;;;7.60;5.53;;;;;;;15.40;69.26;95199.31;5014387;28;20447;-83
2023/05/12 10:55:31;;;;;;;8.13;5.90;;;;;;;15.41;69.63;95199.16;5014219;28;20444;-82
2023/05/12 10:58:04;;;;;;;5.63;4.70;;;;;;;15.41;69.73;95198.34;5014206;28;20788;-81
2023/05/12 11:00:32;;;;;;;5.03;4.63;;;;;;;15.47;72.77;95205.66;5014185;28;20491;-82
2023/05/12 11:03:02;;;;;;;5.47;4.93;;;;;;;15.61;71.23;95196.38;5011881;28;20456;-82
2023/05/12 11:05:34;;;;;;;5.67;4.90;;;;;;;15.75;71.08;95206.41;5014442;28;20461;-82
2023/05/12 11:08:01;;;;;;;7.17;5.13;;;;;;;15.71;66.61;95213.84;5013937;28;20449;-83
2023/05/12 11:10:29;;;;;;;7.30;5.60;;;;;;;15.85;70.44;95207.13;5013806;28;20452;-82
2023/05/12 11:12:56;;;;;;;9.00;4.77;;;;;;;15.89;69.07;95219.06;5013996;28;20637;-83
2023/05/12 11:15:23;;;;;;;8.90;4.93;;;;;;;15.83;67.01;95210.94;5014022;28;20465;-82
2023/05/12 11:17:50;;;;;;;7.90;5.00;;;;;;;15.75;67.59;95212.53;5013761;28;20939;-82
2023/05/12 11:20:23;;;;;;;5.20;4.73;;;;;;;15.66;65.98;95212.63;5013552;28;20487;-83
2023/05/12 11:22:51;;;;;;;5.83;5.23;;;;;;;15.67;67.71;95214.28;5013733;28;20517;-83
2023/05/12 11:25:18;;;;;;;5.73;5.00;;;;;;;15.55;66.10;95215.47;5013468;28;20445;-82
2023/05/12 11:27:49;;;;;;;5.13;4.63;;;;;;;15.60;67.48;95214.06;5013700;28;20452;-83
2023/05/12 11:30:16;;;;;;;11.00;5.60;;;;;;;15.66;67.30;95216.13;5013313;28;20458;-83
2023/05/12 11:32:43;;;;;;;6.27;4.93;;;;;;;15.69;66.97;95228.19;5013596;28;20514;-82
2023/05/12 11:35:11;;;;;;;6.13;5.57;;;;;;;15.67;66.13;95219.59;5013730;28;20449;-83
2023/05/12 11:37:39;;;;;;;5.00;4.50;;;;;;;15.49;66.43;95228.31;4978563;28;20443;-81